x

Destruction Island, Wa (desw1) Weather Station

4:00 - Tue 21st Oct 2014 All times are PDT. -7 hours from GMT.

  • Wind
    39mph, 43mph gusts
  • Ar Temp 58°f
  • Sea Pressure 1007.4mb
  • Destruction Island, Wa
  • Destruction Island, Wa

More Historic Weather Station data

Upgrade to MSW Pro to gain access to the past 30 days of data for over 8000 Wavebouys and Weather Stations around the globe.

Join Pro

Comparision Forecast

View Surf forecast
   
Ter 10/21 4:00 39 43 mph 1007.4mb 58f
3:00 37 43 mph 1008.6mb 59f
2:00 30 36 mph 1009.4mb 59f
1:00 30 36 mph 1010.1mb 59f
12:00 28 30 mph 1010.5mb 57f
11:00 23 26 mph 1010.6mb 56f
10:00 21 23 mph 1010.4mb 57f
9:00 21 23 mph 1010mb 56f
8:00 17 21 mph 1009.5mb 56f
7:00 17 20 mph 1009.5mb 55f
6:00 14 16 mph 1009.3mb 56f
5:00 16 17 mph 1008.9mb 55f
4:00 9 10 mph 1008.6mb 55f
3:00 16 17 mph 1008.2mb 55f
2:00 15 16 mph 1007.9mb 55f
1:00 21 24 mph 1007.4mb 56f
12:00 21 23 mph 1007.1mb 55f
Seg 10/20 11:00 23 25 mph 1006.9mb 56f
10:00 22 24 mph 1006.8mb 56f
9:00 15 20 mph 1006.8mb 57f
8:00 18 20 mph 1006.5mb 59f
7:00 22 25 mph 1006.3mb 59f
6:00 20 24 mph 1006.3mb 58f
5:00 17 20 mph 1006.4mb 59f
4:00 25 29 mph 1006.5mb 57f
3:00 25 29 mph 1006.3mb 58f
2:00 22 25 mph 1006.1mb 58f
1:00 25 30 mph 1006.4mb 58f
12:00 20 21 mph 1006.4mb 58f
11:00 21 22 mph 1006.4mb 57f
10:00 20 23 mph 1006.2mb 57f
9:00 22 25 mph 1005.7mb 57f
8:00 21 23 mph 1004.8mb 56f
7:00 22 25 mph 1004.5mb 58f
6:00 22 24 mph 1004.5mb 57f
5:00 20 22 mph 1004.4mb 56f
4:00 22 24 mph 1004.4mb 56f
3:00 21 23 mph 1004.5mb 56f
2:00 20 22 mph 1004.4mb 57f
1:00 22 26 mph 1004.6mb 57f
12:00 25 29 mph 1004.2mb 57f
Dom 10/19 11:00 23 28 mph 1004.2mb 57f
10:00 17 20 mph 1004.1mb 57f
9:00 17 21 mph 1004.4mb 56f
8:00 13 15 mph 1004.6mb 56f
7:00 16 17 mph 1004.6mb 55f
6:00 14 16 mph 1004.8mb 56f
5:00 23 25 mph 1004.5mb 56f
4:00 43 47 mph 1003.8mb 58f
3:00 49 54 mph 1003.5mb 59f
2:00 45 49 mph 1003.4mb 63f
1:00 46 53 mph 1004.2mb 62f
12:00 39 44 mph 1004.8mb 62f
11:00 37 40 mph 1004.7mb 61f
10:00 34 39 mph 1004.6mb 61f
9:00 36 39 mph 1004.4mb 60f
8:00 38 41 mph 1004.2mb 60f
7:00 33 38 mph 1004.3mb 60f
6:00 37 41 mph 1004.7mb 60f
5:00 26 30 mph 1005.7mb 59f
4:00 32 36 mph 1006.7mb 60f
3:00 28 31 mph 1007.1mb 61f
2:00 26 29 mph 1006.8mb 61f
1:00 24 26 mph 1006.5mb 61f
12:00 24 26 mph 1007.4mb 62f
Sáb 10/18 11:00 26 28 mph 1007.5mb 62f
10:00 28 30 mph 1007.9mb 61f
9:00 26 29 mph 1008.8mb 59f
8:00 24 26 mph 1009.5mb 59f
7:00 20 22 mph 1010.3mb 58f
6:00 20 23 mph 1011mb 59f
5:00 25 28 mph 1011.5mb 60f
4:00 22 24 mph 1012.1mb 59f
3:00 15 16 mph 1012.6mb 60f
2:00 24 25 mph 1012.6mb 60f
1:00 29 31 mph 1012.7mb 60f
12:00 25 30 mph 1012.5mb 58f
11:00 23 26 mph 1012.1mb 59f
10:00 18 21 mph 1012.2mb 59f
9:00 21 22 mph 1011.8mb 59f
8:00 24 26 mph 1011.4mb 59f
7:00 24 28 mph 1010.9mb 59f
6:00 18 21 mph 1010.9mb 59f
5:00 21 23 mph 1010.5mb 59f
4:00 18 22 mph 1010.4mb 59f
3:00 22 24 mph 1010.1mb 59f
2:00 21 23 mph 1009.8mb 59f
1:00 20 22 mph 1009.2mb 59f